Time;durP1;ratioP1;P1;durP2;ratioP2;P2;SDS_P1;SDS_P2;PMS_P1;PMS_P2;Temp;Humidity;BMP_temperature;BMP_pressure;BME280_temperature;BME280_humidity;BME280_pressure;Samples;Min_cycle;Max_cycle;Signal;HPM_P1;HPM_P2
2022/04/10 00:01:07;;;;;;;12.73;5.17;;;;;;;-150.27;100.00;61272.81;5253980;28;20431;-75
2022/04/10 00:03:38;;;;;;;13.33;4.83;;;;;;;-150.27;100.00;61272.81;5251299;28;20565;-75
2022/04/10 00:06:09;;;;;;;10.43;5.53;;;;;;;-150.27;100.00;61272.81;5235506;28;20037;-75
2022/04/10 00:08:41;;;;;;;19.13;6.47;;;;;;;-150.27;100.00;61272.81;5241488;28;20041;-74
2022/04/10 00:11:12;;;;;;;12.07;4.83;;;;;;;-150.27;100.00;61272.81;5248098;28;20460;-75
2022/04/10 00:13:44;;;;;;;12.77;5.93;;;;;;;-150.27;100.00;61272.81;5252212;28;20537;-75
2022/04/10 00:16:15;;;;;;;13.70;6.23;;;;;;;-150.27;100.00;61272.81;5252918;28;20694;-75
2022/04/10 00:18:46;;;;;;;15.43;6.50;;;;;;;-150.27;100.00;61272.81;5252519;28;20029;-75
2022/04/10 00:21:18;;;;;;;13.03;5.43;;;;;;;-150.27;100.00;61272.81;5223517;28;20025;-74
2022/04/10 00:23:49;;;;;;;16.37;7.30;;;;;;;-150.27;100.00;61272.81;5224679;28;20029;-75
2022/04/10 00:26:20;;;;;;;11.50;5.43;;;;;;;-150.27;100.00;61272.81;5229461;28;20092;-74
2022/04/10 00:28:51;;;;;;;11.97;5.30;;;;;;;-150.27;100.00;61272.81;5235645;28;20033;-75
2022/04/10 00:31:23;;;;;;;13.53;6.00;;;;;;;-150.27;100.00;61272.81;5234048;28;20048;-75
2022/04/10 00:33:54;;;;;;;14.00;5.53;;;;;;;-150.27;100.00;61272.81;5232729;28;20499;-75
2022/04/10 00:36:25;;;;;;;11.50;5.57;;;;;;;-150.27;100.00;61272.81;5230590;28;20504;-75
2022/04/10 00:38:58;;;;;;;14.40;6.83;;;;;;;-150.27;100.00;61272.81;5232432;28;20025;-74
2022/04/10 00:41:30;;;;;;;13.77;5.70;;;;;;;-150.27;100.00;61272.81;5231478;28;20686;-75
2022/04/10 00:44:08;;;;;;;13.03;5.83;;;;;;;-150.27;100.00;61272.81;5231910;28;20037;-74
2022/04/10 00:46:40;;;;;;;14.40;6.43;;;;;;;-150.27;100.00;61272.81;5232141;28;20040;-75
2022/04/10 00:49:11;;;;;;;9.93;6.27;;;;;;;-150.27;100.00;61272.81;5244905;28;20025;-75
2022/04/10 00:51:44;;;;;;;11.77;5.80;;;;;;;-150.27;100.00;61272.81;5240489;28;20037;-74
2022/04/10 00:54:18;;;;;;;14.33;7.37;;;;;;;-150.27;100.00;61272.81;5242640;28;20151;-75
2022/04/10 00:56:49;;;;;;;16.03;6.23;;;;;;;-150.27;100.00;61272.81;5253950;28;20075;-74
2022/04/10 00:59:21;;;;;;;13.03;7.33;;;;;;;-150.27;100.00;61272.81;5252753;28;20055;-74
2022/04/10 01:01:52;;;;;;;16.60;7.27;;;;;;;-150.27;100.00;61272.81;5244037;28;20021;-74
2022/04/10 01:04:25;;;;;;;14.60;6.33;;;;;;;-150.27;100.00;61272.81;5231692;28;20488;-75
2022/04/10 01:06:58;;;;;;;15.37;6.47;;;;;;;-150.27;100.00;61272.81;5251996;22;20530;-75
2022/04/10 01:09:31;;;;;;;15.27;7.00;;;;;;;-150.27;100.00;61272.81;5242509;28;20021;-75
2022/04/10 01:12:03;;;;;;;12.80;6.77;;;;;;;-150.27;100.00;61272.81;5244045;28;20720;-75
2022/04/10 01:14:35;;;;;;;15.23;7.77;;;;;;;-150.27;100.00;61272.81;5243251;28;20029;-75
2022/04/10 01:17:08;;;;;;;14.43;6.97;;;;;;;-150.27;100.00;61272.81;5247852;28;20045;-75
2022/04/10 01:19:41;;;;;;;16.87;6.70;;;;;;;-150.27;100.00;61272.81;5231601;28;20026;-75
2022/04/10 01:22:29;;;;;;;15.73;7.23;;;;;;;-150.27;100.00;61272.81;5229670;28;20060;-75
2022/04/10 01:25:04;;;;;;;19.67;8.47;;;;;;;-150.27;100.00;61272.81;5235100;28;20036;-75
2022/04/10 01:27:39;;;;;;;16.83;7.20;;;;;;;-150.27;100.00;61272.81;5235763;28;20036;-75
2022/04/10 01:30:12;;;;;;;12.97;7.20;;;;;;;-150.27;100.00;61272.81;5237817;28;20021;-75
2022/04/10 01:32:43;;;;;;;10.90;7.10;;;;;;;-150.27;100.00;61272.81;5231345;28;20514;-75
2022/04/10 01:35:15;;;;;;;11.77;7.93;;;;;;;-150.27;100.00;61272.81;5231329;28;20034;-74
2022/04/10 01:37:48;;;;;;;14.30;6.83;;;;;;;-150.27;100.00;61272.81;5229513;28;20328;-75
2022/04/10 01:40:19;;;;;;;16.17;8.10;;;;;;;-150.27;100.00;61272.81;5230847;28;20028;-74
2022/04/10 01:42:50;;;;;;;14.17;7.30;;;;;;;-150.27;100.00;61272.81;5236789;28;20033;-75
2022/04/10 01:45:22;;;;;;;17.03;7.73;;;;;;;-150.27;100.00;61272.81;5238593;28;20049;-74
2022/04/10 01:47:53;;;;;;;18.70;7.77;;;;;;;-150.27;100.00;61272.81;5230478;28;20100;-75
2022/04/10 01:50:24;;;;;;;15.47;7.17;;;;;;;-150.27;100.00;61272.81;5230402;28;20392;-75
2022/04/10 01:52:56;;;;;;;10.67;6.83;;;;;;;-150.27;100.00;61272.81;5230641;28;20121;-75
2022/04/10 01:55:27;;;;;;;14.00;8.30;;;;;;;-150.27;100.00;61272.81;5229816;28;20033;-69
2022/04/10 01:57:58;;;;;;;12.30;7.47;;;;;;;-150.27;100.00;61272.81;5230074;28;20029;-75
2022/04/10 02:00:29;;;;;;;15.47;7.43;;;;;;;-150.27;100.00;61272.81;5230083;28;20480;-75
2022/04/10 02:03:01;;;;;;;11.63;7.00;;;;;;;-150.27;100.00;61272.81;5230713;28;20040;-75
2022/04/10 02:05:32;;;;;;;13.53;7.97;;;;;;;-150.27;100.00;61272.81;5229380;28;20833;-74
2022/04/10 02:08:03;;;;;;;17.33;9.43;;;;;;;-150.27;100.00;61272.81;5229923;28;20625;-74
2022/04/10 02:10:35;;;;;;;22.07;8.63;;;;;;;-150.27;100.00;61272.81;5212680;28;20072;-75
2022/04/10 02:13:09;;;;;;;14.63;7.60;;;;;;;-150.27;100.00;61272.81;5229910;28;20079;-74
2022/04/10 02:15:41;;;;;;;14.02;8.35;;;;;;;-150.27;100.00;61272.81;5240301;28;20025;-75
2022/04/10 02:18:12;;;;;;;14.00;8.80;;;;;;;-150.27;100.00;61272.81;5234124;28;20486;-76
2022/04/10 02:20:44;;;;;;;13.27;7.77;;;;;;;-150.27;100.00;61272.81;5229066;28;20041;-76
2022/04/10 02:23:15;;;;;;;13.30;7.70;;;;;;;-150.27;100.00;61272.81;5229869;28;20036;-76
2022/04/10 02:25:46;;;;;;;17.33;9.20;;;;;;;-150.27;100.00;61272.81;5229317;28;20589;-74
2022/04/10 02:28:17;;;;;;;15.87;8.07;;;;;;;-150.27;100.00;61272.81;5229721;28;20625;-74
2022/04/10 02:30:49;;;;;;;12.33;8.23;;;;;;;-150.27;100.00;61272.81;5212514;28;20112;-75
2022/04/10 02:33:21;;;;;;;12.97;8.10;;;;;;;-150.27;100.00;61272.81;5229873;28;20148;-76
2022/04/10 02:35:52;;;;;;;15.90;8.57;;;;;;;-150.27;100.00;61272.81;5232477;28;20022;-75
2022/04/10 02:38:23;;;;;;;13.87;9.37;;;;;;;-150.27;100.00;61272.81;5232206;28;20025;-76
2022/04/10 02:40:54;;;;;;;17.00;8.93;;;;;;;-150.27;100.00;61272.81;5211980;28;20036;-76
2022/04/10 02:43:26;;;;;;;13.63;8.23;;;;;;;-150.27;100.00;61272.81;5229256;28;20183;-77
2022/04/10 02:45:57;;;;;;;12.80;8.23;;;;;;;-150.27;100.00;61272.81;5229533;28;20021;-69
2022/04/10 02:48:28;;;;;;;16.70;9.47;;;;;;;-150.27;100.00;61272.81;5230154;28;20381;-75
2022/04/10 02:51:01;;;;;;;16.93;10.17;;;;;;;-150.27;100.00;61272.81;5233941;28;20689;-74
2022/04/10 02:53:32;;;;;;;14.67;8.33;;;;;;;-150.27;100.00;61272.81;5230517;28;20104;-75
2022/04/10 02:56:04;;;;;;;13.07;8.80;;;;;;;-150.27;100.00;61272.81;5229148;28;20491;-75
2022/04/10 02:58:35;;;;;;;12.60;8.57;;;;;;;-150.27;100.00;61272.81;5229551;28;20030;-74
2022/04/10 03:01:06;;;;;;;15.93;8.93;;;;;;;-150.27;100.00;61272.81;5229200;28;20034;-74
2022/04/10 03:03:37;;;;;;;17.63;8.97;;;;;;;-150.27;100.00;61272.81;5211681;28;20060;-74
2022/04/10 03:06:09;;;;;;;18.27;9.23;;;;;;;-150.27;100.00;61272.81;5228403;28;20050;-74
2022/04/10 03:08:40;;;;;;;14.93;8.63;;;;;;;-150.27;100.00;61272.81;5229193;28;20060;-75
2022/04/10 03:11:11;;;;;;;12.90;8.57;;;;;;;-150.27;100.00;61272.81;5229487;28;20034;-75
2022/04/10 03:13:42;;;;;;;15.03;9.00;;;;;;;-150.27;100.00;61272.81;5229383;28;20029;-74
2022/04/10 03:16:14;;;;;;;19.63;8.67;;;;;;;-150.27;100.00;61272.81;5243863;28;20059;-75
2022/04/10 03:18:45;;;;;;;17.10;8.80;;;;;;;-150.27;100.00;61272.81;5229425;28;20028;-75
2022/04/10 03:21:17;;;;;;;14.50;8.37;;;;;;;-150.27;100.00;61272.81;5228049;28;20034;-74
2022/04/10 03:23:49;;;;;;;17.50;8.93;;;;;;;-150.27;100.00;61272.81;5229082;28;20025;-74
2022/04/10 03:26:20;;;;;;;15.33;9.30;;;;;;;-150.27;100.00;61272.81;5229135;28;20388;-74
2022/04/10 03:28:51;;;;;;;11.13;8.10;;;;;;;-150.27;100.00;61272.81;5229812;28;20504;-74
2022/04/10 03:31:23;;;;;;;18.63;9.47;;;;;;;-150.27;100.00;61272.81;5210626;28;20037;-75
2022/04/10 03:33:55;;;;;;;15.07;8.40;;;;;;;-150.27;100.00;61272.81;5229772;28;20376;-74
2022/04/10 03:36:26;;;;;;;15.87;8.50;;;;;;;-150.27;100.00;61272.81;5228126;28;20286;-75
2022/04/10 03:38:57;;;;;;;13.33;8.17;;;;;;;-150.27;100.00;61272.81;5228977;28;20104;-75
2022/04/10 03:41:29;;;;;;;15.57;9.00;;;;;;;-150.27;100.00;61272.81;5228767;28;20030;-75
2022/04/10 03:44:00;;;;;;;15.00;8.67;;;;;;;-150.27;100.00;61272.81;5229107;28;20129;-74
2022/04/10 03:46:31;;;;;;;12.77;7.93;;;;;;;-150.27;100.00;61272.81;5212344;28;20025;-75
2022/04/10 03:49:03;;;;;;;13.87;7.83;;;;;;;-150.27;100.00;61272.81;5228910;28;20025;-75
2022/04/10 03:51:34;;;;;;;15.40;9.23;;;;;;;-150.27;100.00;61272.81;5228370;28;20030;-76
2022/04/10 03:54:05;;;;;;;16.07;9.37;;;;;;;-150.27;100.00;61272.81;5228044;28;20120;-75
2022/04/10 03:56:36;;;;;;;15.47;8.70;;;;;;;-150.27;100.00;61272.81;5229464;28;20041;-76
2022/04/10 03:59:08;;;;;;;13.73;7.97;;;;;;;-150.27;100.00;61272.81;5227180;28;20116;-75
2022/04/10 04:01:39;;;;;;;15.80;8.83;;;;;;;-150.27;100.00;61272.81;5229168;28;20127;-75
2022/04/10 04:04:10;;;;;;;13.53;9.13;;;;;;;-150.27;100.00;61272.81;5229209;28;20091;-75
2022/04/10 04:06:42;;;;;;;19.60;10.57;;;;;;;-150.27;100.00;61272.81;5227543;28;20052;-75
2022/04/10 04:09:14;;;;;;;17.63;9.90;;;;;;;-150.27;100.00;61272.81;5228678;28;20037;-75
2022/04/10 04:11:45;;;;;;;11.73;7.80;;;;;;;-150.27;100.00;61272.81;5231754;28;20537;-75
2022/04/10 04:14:16;;;;;;;14.57;8.23;;;;;;;-150.27;100.00;61272.81;5232612;28;20342;-75
2022/04/10 04:16:48;;;;;;;21.53;9.97;;;;;;;-150.27;100.00;61272.81;5246366;28;20476;-75
2022/04/10 04:19:19;;;;;;;16.67;8.90;;;;;;;-150.27;100.00;61272.81;5232309;28;20067;-75
2022/04/10 04:21:50;;;;;;;19.03;9.13;;;;;;;-150.27;100.00;61272.81;5231562;28;20037;-75
2022/04/10 04:24:21;;;;;;;12.80;8.00;;;;;;;-150.27;100.00;61272.81;5214212;28;20783;-75
2022/04/10 04:26:53;;;;;;;12.67;7.83;;;;;;;-150.27;100.00;61272.81;5232789;28;20052;-75
2022/04/10 04:29:24;;;;;;;11.17;7.43;;;;;;;-150.27;100.00;61272.81;5232415;28;20029;-75
2022/04/10 04:31:55;;;;;;;14.53;8.00;;;;;;;-150.27;100.00;61272.81;5214191;28;20029;-74
2022/04/10 04:34:26;;;;;;;14.23;8.47;;;;;;;-150.27;100.00;61272.81;5215920;28;20022;-75
2022/04/10 04:36:58;;;;;;;15.67;8.77;;;;;;;-150.27;100.00;61272.81;5234804;28;20032;-75
2022/04/10 04:39:29;;;;;;;14.07;8.70;;;;;;;-150.27;100.00;61272.81;5233007;28;20053;-75
2022/04/10 04:42:00;;;;;;;11.93;7.83;;;;;;;-150.27;100.00;61272.81;5231745;28;20033;-74
2022/04/10 04:44:32;;;;;;;11.90;7.57;;;;;;;-150.27;100.00;61272.81;5232513;28;20087;-75
2022/04/10 04:47:03;;;;;;;13.87;7.73;;;;;;;-150.27;100.00;61272.81;5231897;28;20067;-76
2022/04/10 04:49:34;;;;;;;12.77;7.50;;;;;;;-150.27;100.00;61272.81;5232094;28;20026;-74
2022/04/10 04:52:06;;;;;;;13.20;7.67;;;;;;;-150.27;100.00;61272.81;5212593;28;20049;-75
2022/04/10 04:54:37;;;;;;;18.60;10.17;;;;;;;-150.27;100.00;61272.81;5231979;28;20033;-75
2022/04/10 04:57:08;;;;;;;10.27;6.97;;;;;;;-150.27;100.00;61272.81;5231794;28;20652;-75
2022/04/10 04:59:40;;;;;;;12.83;7.87;;;;;;;-150.27;100.00;61272.81;5231395;28;20459;-75
2022/04/10 05:02:11;;;;;;;11.23;6.70;;;;;;;-150.27;100.00;61272.81;5232238;28;20469;-75
2022/04/10 05:04:42;;;;;;;11.00;7.73;;;;;;;-150.27;100.00;61272.81;5232015;28;20675;-75
2022/04/10 05:07:14;;;;;;;10.20;7.03;;;;;;;-150.27;100.00;61272.81;5230000;28;20083;-74
2022/04/10 05:09:45;;;;;;;11.90;7.07;;;;;;;-150.27;100.00;61272.81;5231434;28;20021;-75
2022/04/10 05:12:16;;;;;;;12.40;6.87;;;;;;;-150.27;100.00;61272.81;5231467;28;21162;-75
2022/04/10 05:14:47;;;;;;;14.37;7.10;;;;;;;-150.27;100.00;61272.81;5213812;28;20083;-75
2022/04/10 05:17:19;;;;;;;12.37;7.43;;;;;;;-150.27;100.00;61272.81;5230878;28;20033;-75
2022/04/10 05:19:50;;;;;;;12.80;6.93;;;;;;;-150.27;100.00;61272.81;5230888;28;20045;-75
2022/04/10 05:22:21;;;;;;;10.50;7.77;;;;;;;-150.27;100.00;61272.81;5229390;28;20038;-75
2022/04/10 05:24:52;;;;;;;12.67;7.33;;;;;;;-150.27;100.00;61272.81;5231516;28;20040;-75
2022/04/10 05:27:25;;;;;;;17.47;7.37;;;;;;;-150.27;100.00;61272.81;5231006;28;20057;-75
2022/04/10 05:29:56;;;;;;;13.80;7.97;;;;;;;-150.27;100.00;61272.81;5230891;28;20026;-75
2022/04/10 05:32:27;;;;;;;18.27;6.77;;;;;;;-150.27;100.00;61272.81;5230003;28;20036;-75
2022/04/10 05:34:58;;;;;;;10.07;7.10;;;;;;;-150.27;100.00;61272.81;5229977;28;20499;-75
2022/04/10 05:37:30;;;;;;;11.70;6.40;;;;;;;-150.27;100.00;61272.81;5230993;28;20025;-75
2022/04/10 05:40:02;;;;;;;11.07;7.03;;;;;;;-150.27;100.00;61272.81;5231101;28;20565;-75
2022/04/10 05:42:43;;;;;;;13.93;7.00;;;;;;;-150.27;100.00;61272.81;5229346;28;20029;-75
2022/04/10 05:45:15;;;;;;;11.30;6.37;;;;;;;-150.27;100.00;61272.81;5230975;28;20363;-76
2022/04/10 05:47:46;;;;;;;11.13;7.37;;;;;;;-150.27;100.00;61272.81;5230527;28;20458;-75
2022/04/10 05:50:17;;;;;;;10.73;6.33;;;;;;;-150.27;100.00;61272.81;5229806;28;20585;-74
2022/04/10 05:52:50;;;;;;;14.17;6.77;;;;;;;-150.27;100.00;61272.81;5230230;28;20060;-75
2022/04/10 05:55:23;;;;;;;17.87;7.03;;;;;;;-150.27;100.00;61272.81;5230058;28;20016;-75
2022/04/10 05:57:54;;;;;;;12.30;7.03;;;;;;;-150.27;100.00;61272.81;5213112;28;20041;-74
2022/04/10 06:00:26;;;;;;;11.83;6.63;;;;;;;-150.27;100.00;61272.81;5212168;28;20384;-74
2022/04/10 06:03:02;;;;;;;14.50;7.77;;;;;;;-150.27;100.00;61272.81;5212471;28;20655;-75
2022/04/10 06:05:33;;;;;;;12.80;7.53;;;;;;;-150.27;100.00;61272.81;5228100;28;20033;-75
2022/04/10 06:08:05;;;;;;;13.30;6.97;;;;;;;-150.27;100.00;61272.81;5212208;28;20837;-75
2022/04/10 06:10:36;;;;;;;12.63;6.43;;;;;;;-150.27;100.00;61272.81;5246563;28;20030;-75
2022/04/10 06:13:11;;;;;;;16.20;6.67;;;;;;;-150.27;100.00;61272.81;5239041;28;20044;-75
2022/04/10 06:15:42;;;;;;;11.83;7.03;;;;;;;-150.27;100.00;61272.81;5229548;28;20675;-75
2022/04/10 06:18:14;;;;;;;13.50;6.60;;;;;;;-150.27;100.00;61272.81;5230108;28;20098;-75
2022/04/10 06:20:45;;;;;;;14.77;7.27;;;;;;;-150.27;100.00;61272.81;5233909;28;20222;-75
2022/04/10 06:23:16;;;;;;;12.63;6.67;;;;;;;-150.27;100.00;61272.81;5231709;28;20863;-75
2022/04/10 06:25:48;;;;;;;11.13;7.30;;;;;;;-150.27;100.00;61272.81;5230254;28;20118;-75
2022/04/10 06:28:19;;;;;;;16.37;7.70;;;;;;;-150.27;100.00;61272.81;5225680;28;20025;-75
2022/04/10 06:30:50;;;;;;;10.47;6.73;;;;;;;-150.27;100.00;61272.81;5229617;28;20029;-75
2022/04/10 06:33:21;;;;;;;17.37;8.40;;;;;;;-150.27;100.00;61272.81;5231700;28;20596;-75
2022/04/10 06:35:54;;;;;;;13.10;8.00;;;;;;;-150.27;100.00;61272.81;5242594;28;20096;-74
2022/04/10 06:38:25;;;;;;;12.40;7.60;;;;;;;-150.27;100.00;61272.81;5245840;28;20155;-73
2022/04/10 06:40:56;;;;;;;18.43;7.60;;;;;;;-150.27;100.00;61272.81;5248675;28;20119;-75
2022/04/10 06:43:27;;;;;;;13.43;9.60;;;;;;;-150.27;100.00;61272.81;5249597;28;20032;-74
2022/04/10 06:45:59;;;;;;;16.70;8.80;;;;;;;-150.27;100.00;61272.81;5241613;28;20082;-75
2022/04/10 06:48:31;;;;;;;14.33;7.93;;;;;;;-150.27;100.00;61272.81;5250557;28;20016;-75
2022/04/10 06:51:03;;;;;;;16.93;7.60;;;;;;;-150.27;100.00;61272.81;5243758;28;20028;-75
2022/04/10 06:53:34;;;;;;;14.27;8.07;;;;;;;-150.27;100.00;61272.81;5243346;28;20010;-75
2022/04/10 06:56:05;;;;;;;17.20;7.37;;;;;;;-150.27;100.00;61272.81;5236857;28;20044;-76
2022/04/10 06:58:36;;;;;;;12.80;7.37;;;;;;;-150.27;100.00;61272.81;5250012;28;20023;-73
2022/04/10 07:01:08;;;;;;;14.77;7.57;;;;;;;-150.27;100.00;61272.81;5227297;28;20056;-73
2022/04/10 07:03:39;;;;;;;10.77;6.30;;;;;;;-150.27;100.00;61272.81;5228831;28;20123;-73
2022/04/10 07:06:11;;;;;;;13.03;6.17;;;;;;;-150.27;100.00;61272.81;5245494;28;20510;-73
2022/04/10 07:08:42;;;;;;;17.60;7.80;;;;;;;-150.27;100.00;61272.81;5244291;28;20057;-74
2022/04/10 07:11:13;;;;;;;13.43;6.13;;;;;;;-150.27;100.00;61272.81;5231913;28;20033;-74
2022/04/10 07:13:44;;;;;;;15.47;6.27;;;;;;;-150.27;100.00;61272.81;5238893;28;20527;-74
2022/04/10 07:16:16;;;;;;;13.23;6.80;;;;;;;-150.27;100.00;61272.81;5228595;28;20603;-74
2022/04/10 07:18:47;;;;;;;16.63;7.57;;;;;;;-150.27;100.00;61272.81;5211033;28;20443;-75
2022/04/10 07:23:41;;;;;;;12.20;6.30;;;;;;;-150.27;100.00;61272.81;5227584;28;20698;-75
2022/04/10 07:24:10;;;;;;;12.83;5.67;;;;;;;-150.27;100.00;61272.81;5228597;28;20052;-74
2022/04/10 07:26:41;;;;;;;13.03;7.07;;;;;;;-150.27;100.00;61272.81;5232883;28;20029;-74
2022/04/10 07:29:12;;;;;;;17.13;7.27;;;;;;;-150.27;100.00;61272.81;5206984;28;20399;-74
2022/04/10 07:31:44;;;;;;;12.90;6.27;;;;;;;-150.27;100.00;61272.81;5236703;28;20025;-74
2022/04/10 07:34:15;;;;;;;9.63;6.07;;;;;;;-150.27;100.00;61272.81;5217721;28;20036;-74
2022/04/10 07:36:46;;;;;;;14.07;6.53;;;;;;;-150.27;100.00;61272.81;5240944;28;20037;-75
2022/04/10 07:39:17;;;;;;;9.80;5.93;;;;;;;-150.27;100.00;61272.81;5251129;28;20031;-74
2022/04/10 07:41:49;;;;;;;10.93;5.80;;;;;;;-150.27;100.00;61272.81;5250250;28;20041;-74
2022/04/10 07:44:20;;;;;;;11.77;6.67;;;;;;;-150.27;100.00;61272.81;5249299;28;20036;-72
2022/04/10 07:49:41;;;;;;;14.20;5.90;;;;;;;-150.27;100.00;61272.81;5235253;28;20037;-74
2022/04/10 07:52:12;;;;;;;11.67;5.77;;;;;;;-150.27;100.00;61272.81;5232592;28;20038;-74
2022/04/10 07:54:43;;;;;;;10.53;5.40;;;;;;;-150.27;100.00;61272.81;5248936;28;20051;-74
2022/04/10 07:57:16;;;;;;;6.90;3.60;;;;;;;-150.27;100.00;61272.81;5226251;28;20029;-74
2022/04/10 07:59:47;;;;;;;8.70;4.33;;;;;;;-150.27;100.00;61272.81;5231649;28;20040;-74
2022/04/10 08:02:18;;;;;;;9.17;3.97;;;;;;;-150.27;100.00;61272.81;5251902;28;20021;-74
2022/04/10 08:04:50;;;;;;;7.53;3.47;;;;;;;-150.27;100.00;61272.81;5234246;28;20052;-75
2022/04/10 08:07:21;;;;;;;11.87;3.70;;;;;;;-150.27;100.00;61272.81;5251536;28;20025;-74
2022/04/10 08:09:53;;;;;;;9.07;3.27;;;;;;;-150.27;100.00;61272.81;5236393;28;20464;-76
2022/04/10 08:12:25;;;;;;;6.53;3.10;;;;;;;-150.27;100.00;61272.81;5231599;28;20032;-75
2022/04/10 08:14:56;;;;;;;12.13;3.90;;;;;;;-150.27;100.00;61272.81;5234989;28;20529;-74
2022/04/10 08:17:27;;;;;;;10.47;2.70;;;;;;;-150.27;100.00;61272.81;5231147;28;20033;-75
2022/04/10 08:19:59;;;;;;;10.13;3.47;;;;;;;-150.27;100.00;61272.81;5230381;28;20052;-75
2022/04/10 08:22:36;;;;;;;6.80;2.67;;;;;;;-150.27;100.00;61272.81;5231276;28;20099;-74
2022/04/10 08:25:10;;;;;;;7.50;3.17;;;;;;;-150.27;100.00;61272.81;5231643;28;20037;-74
2022/04/10 08:27:41;;;;;;;6.25;2.90;;;;;;;-150.27;100.00;61272.81;5233997;28;20035;-73
2022/04/10 08:30:12;;;;;;;9.47;2.17;;;;;;;-150.27;100.00;61272.81;5234486;28;20120;-73
2022/04/10 08:32:44;;;;;;;8.20;2.17;;;;;;;-150.27;100.00;61272.81;5215208;28;20017;-75
2022/04/10 08:35:16;;;;;;;6.53;2.07;;;;;;;-150.27;100.00;61272.81;5231793;28;20079;-73
2022/04/10 08:37:47;;;;;;;7.63;2.43;;;;;;;-150.27;100.00;61272.81;5235447;28;20030;-85
2022/04/10 08:40:19;;;;;;;6.03;2.50;;;;;;;-150.27;100.00;61272.81;5233252;28;20030;-74
2022/04/10 08:42:53;;;;;;;6.80;2.70;;;;;;;-150.27;100.00;61272.81;5233689;28;20034;-74
2022/04/10 08:45:25;;;;;;;10.20;2.78;;;;;;;-150.27;100.00;61272.81;5247252;28;20029;-76
2022/04/10 08:47:57;;;;;;;7.13;2.07;;;;;;;-150.27;100.00;61272.81;5240932;28;20013;-74
2022/04/10 08:50:28;;;;;;;8.03;2.97;;;;;;;-150.27;100.00;61272.81;5236072;28;20033;-72
2022/04/10 08:53:02;;;;;;;4.60;1.80;;;;;;;-150.27;100.00;61272.81;5231525;28;20017;-72
2022/04/10 08:55:33;;;;;;;9.23;2.40;;;;;;;-150.27;100.00;61272.81;5235368;28;20553;-74
2022/04/10 08:58:04;;;;;;;6.70;2.83;;;;;;;-150.27;100.00;61272.81;5233586;28;20013;-72
2022/04/10 09:00:36;;;;;;;6.30;2.30;;;;;;;-150.27;100.00;61272.81;5232725;28;20034;-72
2022/04/10 09:03:08;;;;;;;7.30;2.87;;;;;;;-150.27;100.00;61272.81;5229445;28;20106;-72
2022/04/10 09:05:40;;;;;;;7.77;2.60;;;;;;;-150.27;100.00;61272.81;5223672;28;20042;-72
2022/04/10 09:08:18;;;;;;;9.27;2.77;;;;;;;-150.27;100.00;61272.81;5218942;28;20458;-71
2022/04/10 09:10:54;;;;;;;7.50;2.70;;;;;;;-150.27;100.00;61272.81;5217369;28;20050;-73
2022/04/10 09:13:36;;;;;;;11.47;3.37;;;;;;;-150.27;100.00;61272.81;5211448;28;20123;-73
2022/04/10 09:16:22;;;;;;;5.63;2.17;;;;;;;-150.27;100.00;61272.81;5192225;28;20507;-72
2022/04/10 09:18:56;;;;;;;7.80;2.23;;;;;;;-150.27;100.00;61272.81;5214430;28;20030;-77
2022/04/10 09:21:29;;;;;;;7.40;2.55;;;;;;;-150.27;100.00;61272.81;5214250;28;20130;-74
2022/04/10 09:24:09;;;;;;;8.05;2.55;;;;;;;-150.27;100.00;61272.81;5213325;28;20033;-74
2022/04/10 09:26:47;;;;;;;6.27;2.50;;;;;;;-150.27;100.00;61272.81;5233605;28;20029;-75
2022/04/10 09:29:20;;;;;;;6.90;1.80;;;;;;;-150.27;100.00;61272.81;5244023;28;20021;-77
2022/04/10 09:31:54;;;;;;;4.10;1.70;;;;;;;-150.27;100.00;61272.81;5227913;28;20040;-79
2022/04/10 09:34:26;;;;;;;;;;;;;;;-150.27;100.00;61272.81;5229089;28;20029;-82
2022/04/10 09:37:00;;;;;;;8.07;1.67;;;;;;;-150.27;100.00;61272.81;5230435;28;20338;-76
2022/04/10 09:39:35;;;;;;;4.60;1.88;;;;;;;-150.27;100.00;61272.81;5229934;28;20120;-79
2022/04/10 09:42:09;;;;;;;8.43;1.93;;;;;;;-150.27;100.00;61272.81;5232517;28;20037;-82
2022/04/10 09:44:40;;;;;;;5.90;2.00;;;;;;;-150.27;100.00;61272.81;5231176;28;20641;-82
2022/04/10 09:47:12;;;;;;;4.17;1.87;;;;;;;-150.27;100.00;61272.81;5230866;28;20056;-72
2022/04/10 09:49:43;;;;;;;6.63;1.60;;;;;;;-150.27;100.00;61272.81;5229202;28;20388;-79
2022/04/10 09:52:17;;;;;;;4.32;1.38;;;;;;;-150.27;100.00;61272.81;5244284;28;20040;-74
2022/04/10 09:54:50;;;;;;;6.43;1.67;;;;;;;-150.27;100.00;61272.81;5231451;28;20030;-74
2022/04/10 09:57:22;;;;;;;6.20;1.83;;;;;;;-150.27;100.00;61272.81;5227070;28;20018;-73
2022/04/10 09:59:55;;;;;;;7.70;2.22;;;;;;;-150.27;100.00;61272.81;5233837;28;20063;-72
2022/04/10 10:02:27;;;;;;;4.95;1.85;;;;;;;-150.27;100.00;61272.81;5224402;28;20025;-74
2022/04/10 10:04:59;;;;;;;5.33;1.47;;;;;;;-150.27;100.00;61272.81;5201213;28;1016165;-72
2022/04/10 10:07:31;;;;;;;5.55;1.63;;;;;;;-150.27;100.00;61272.81;5247868;28;20029;-73
2022/04/10 10:10:03;;;;;;;3.78;1.77;;;;;;;-150.27;100.00;61272.81;5252283;28;20020;-73
2022/04/10 10:12:34;;;;;;;4.30;1.70;;;;;;;-150.27;100.00;61272.81;5250680;28;20108;-73
2022/04/10 10:15:06;;;;;;;6.15;1.90;;;;;;;-150.27;100.00;61272.81;5229124;28;20032;-72
2022/04/10 10:17:37;;;;;;;8.77;2.78;;;;;;;-150.27;100.00;61272.81;5227729;28;20625;-73
2022/04/10 10:20:11;;;;;;;4.93;1.95;;;;;;;-150.27;100.00;61272.81;5232417;28;20108;-73
2022/04/10 10:22:42;;;;;;;5.80;1.45;;;;;;;-150.27;100.00;61272.81;5250542;28;20037;-72
2022/04/10 10:25:27;;;;;;;6.13;2.00;;;;;;;-150.27;100.00;61272.81;5236055;28;20248;-73
2022/04/10 10:28:31;;;;;;;6.25;2.08;;;;;;;-150.27;100.00;61272.81;5241867;28;20054;-73
2022/04/10 10:31:20;;;;;;;4.55;1.63;;;;;;;-150.27;100.00;61272.81;5236779;28;20032;-74
2022/04/10 10:33:56;;;;;;;5.00;1.67;;;;;;;-150.27;100.00;61272.81;5250197;28;20419;-73
2022/04/10 10:36:27;;;;;;;4.37;1.70;;;;;;;-150.27;100.00;61272.81;5248780;28;20065;-73
2022/04/10 10:39:00;;;;;;;4.97;2.07;;;;;;;-150.27;100.00;61272.81;5250084;28;20029;-73
2022/04/10 10:41:33;;;;;;;4.37;1.70;;;;;;;-150.27;100.00;61272.81;5250098;28;20115;-74
2022/04/10 10:44:16;;;;;;;5.07;1.70;;;;;;;-150.27;100.00;61272.81;5250132;28;20462;-73
2022/04/10 10:47:00;;;;;;;4.37;1.77;;;;;;;-150.27;100.00;61272.81;5250150;28;20288;-73
2022/04/10 10:49:44;;;;;;;5.23;1.50;;;;;;;-150.27;100.00;61272.81;5241369;28;20013;-73
2022/04/10 10:52:16;;;;;;;5.10;2.78;;;;;;;-150.27;100.00;61272.81;5245714;28;20364;-74
2022/04/10 10:54:52;;;;;;;3.53;1.30;;;;;;;-150.27;100.00;61272.81;5250039;28;20032;-74
2022/04/10 10:57:43;;;;;;;7.83;1.70;;;;;;;-150.27;100.00;61272.81;5241177;28;20029;-74
2022/04/10 11:00:19;;;;;;;7.50;2.37;;;;;;;-150.27;100.00;61272.81;5249574;28;20025;-74
2022/04/10 11:02:53;;;;;;;4.43;1.60;;;;;;;-150.27;100.00;61272.81;5239140;28;20094;-74
2022/04/10 11:05:24;;;;;;;6.38;1.75;;;;;;;-150.27;100.00;61272.81;5248744;28;20527;-74
2022/04/10 11:08:01;;;;;;;3.83;1.60;;;;;;;-150.27;100.00;61272.81;5249538;28;20447;-74
2022/04/10 11:10:39;;;;;;;5.77;1.50;;;;;;;-150.27;100.00;61272.81;5250505;28;20468;-74
2022/04/10 11:13:10;;;;;;;4.30;1.47;;;;;;;-150.27;100.00;61272.81;5228634;28;20020;-76
2022/04/10 11:15:52;;;;;;;4.03;1.60;;;;;;;-150.27;100.00;61272.81;5229285;28;20026;-76
2022/04/10 11:18:23;;;;;;;7.30;2.37;;;;;;;-150.27;100.00;61272.81;5228861;28;20022;-73
2022/04/10 11:20:56;;;;;;;7.70;2.47;;;;;;;-150.27;100.00;61272.81;5230729;28;20025;-73
2022/04/10 11:23:29;;;;;;;5.97;2.10;;;;;;;-150.27;100.00;61272.81;5231779;28;20099;-72
2022/04/10 11:26:07;;;;;;;6.07;2.07;;;;;;;-150.27;100.00;61272.81;5238143;28;20380;-74
2022/04/10 11:28:55;;;;;;;4.73;1.70;;;;;;;-150.27;100.00;61272.81;5219939;28;20025;-74
2022/04/10 11:31:47;;;;;;;6.07;1.63;;;;;;;-150.27;100.00;61272.81;5254108;28;20578;-74